sensor_id;sensor_type;location;lat;lon;timestamp;temperature;humidity
9949;DHT22;5013;51.840;8.276;2023-09-12T00:00:48;22.10;97.40
9949;DHT22;5013;51.840;8.276;2023-09-12T00:03:14;22.00;99.90
9949;DHT22;5013;51.840;8.276;2023-09-12T00:05:39;22.10;64.50
9949;DHT22;5013;51.840;8.276;2023-09-12T00:08:06;22.00;1.00
9949;DHT22;5013;51.840;8.276;2023-09-12T00:10:32;22.00;99.90
9949;DHT22;5013;51.840;8.276;2023-09-12T00:12:58;22.00;1.00
9949;DHT22;5013;51.840;8.276;2023-09-12T00:15:27;22.00;48.90
9949;DHT22;5013;51.840;8.276;2023-09-12T00:17:53;22.00;99.90
9949;DHT22;5013;51.840;8.276;2023-09-12T00:20:18;21.90;99.90
9949;DHT22;5013;51.840;8.276;2023-09-12T00:22:44;22.00;1.00
9949;DHT22;5013;51.840;8.276;2023-09-12T00:25:10;22.00;1.00
9949;DHT22;5013;51.840;8.276;2023-09-12T00:27:36;22.00;1.00
9949;DHT22;5013;51.840;8.276;2023-09-12T00:30:01;22.00;1.00
9949;DHT22;5013;51.840;8.276;2023-09-12T00:32:27;21.80;1.00
9949;DHT22;5013;51.840;8.276;2023-09-12T00:34:52;21.70;99.90
9949;DHT22;5013;51.840;8.276;2023-09-12T00:37:18;21.70;99.90
9949;DHT22;5013;51.840;8.276;2023-09-12T00:39:43;21.60;99.90
9949;DHT22;5013;51.840;8.276;2023-09-12T00:42:09;21.50;99.90
9949;DHT22;5013;51.840;8.276;2023-09-12T00:44:35;21.40;1.00
9949;DHT22;5013;51.840;8.276;2023-09-12T00:47:01;21.40;1.00
9949;DHT22;5013;51.840;8.276;2023-09-12T00:49:28;21.30;1.00
9949;DHT22;5013;51.840;8.276;2023-09-12T00:51:54;21.20;12.20
9949;DHT22;5013;51.840;8.276;2023-09-12T00:54:21;21.20;99.90
9949;DHT22;5013;51.840;8.276;2023-09-12T00:56:47;21.10;1.00
9949;DHT22;5013;51.840;8.276;2023-09-12T00:59:14;21.20;99.90
9949;DHT22;5013;51.840;8.276;2023-09-12T01:01:41;21.10;1.00
9949;DHT22;5013;51.840;8.276;2023-09-12T01:04:07;21.00;1.00
9949;DHT22;5013;51.840;8.276;2023-09-12T01:06:33;21.00;1.00
9949;DHT22;5013;51.840;8.276;2023-09-12T01:09:00;21.00;1.00
9949;DHT22;5013;51.840;8.276;2023-09-12T01:11:26;20.90;1.00
9949;DHT22;5013;51.840;8.276;2023-09-12T01:13:52;20.80;99.90
9949;DHT22;5013;51.840;8.276;2023-09-12T01:16:18;20.60;1.00
9949;DHT22;5013;51.840;8.276;2023-09-12T01:18:43;20.60;62.90
9949;DHT22;5013;51.840;8.276;2023-09-12T01:23:47;20.60;99.90
9949;DHT22;5013;51.840;8.276;2023-09-12T01:28:50;20.60;14.50
9949;DHT22;5013;51.840;8.276;2023-09-12T01:31:17;20.60;1.00
9949;DHT22;5013;51.840;8.276;2023-09-12T01:33:43;20.50;99.90
9949;DHT22;5013;51.840;8.276;2023-09-12T01:36:10;20.60;1.00
9949;DHT22;5013;51.840;8.276;2023-09-12T01:38:35;20.60;99.90
9949;DHT22;5013;51.840;8.276;2023-09-12T01:41:01;20.70;1.00
9949;DHT22;5013;51.840;8.276;2023-09-12T01:43:27;20.60;24.10
9949;DHT22;5013;51.840;8.276;2023-09-12T01:45:55;20.60;1.00
9949;DHT22;5013;51.840;8.276;2023-09-12T01:48:25;20.60;53.20
9949;DHT22;5013;51.840;8.276;2023-09-12T01:50:52;20.60;99.90
9949;DHT22;5013;51.840;8.276;2023-09-12T01:53:19;20.60;99.90
9949;DHT22;5013;51.840;8.276;2023-09-12T01:55:45;20.60;1.00
9949;DHT22;5013;51.840;8.276;2023-09-12T01:58:13;20.60;99.90
9949;DHT22;5013;51.840;8.276;2023-09-12T02:00:40;20.70;1.00
9949;DHT22;5013;51.840;8.276;2023-09-12T02:03:05;20.60;99.90
9949;DHT22;5013;51.840;8.276;2023-09-12T02:05:31;20.50;1.00
9949;DHT22;5013;51.840;8.276;2023-09-12T02:07:57;20.50;1.00
9949;DHT22;5013;51.840;8.276;2023-09-12T02:10:25;20.40;99.90
9949;DHT22;5013;51.840;8.276;2023-09-12T02:12:51;20.30;1.00
9949;DHT22;5013;51.840;8.276;2023-09-12T02:15:16;20.20;1.00
9949;DHT22;5013;51.840;8.276;2023-09-12T02:17:42;20.10;1.00
9949;DHT22;5013;51.840;8.276;2023-09-12T02:20:09;20.10;99.90
9949;DHT22;5013;51.840;8.276;2023-09-12T02:22:35;20.10;99.90
9949;DHT22;5013;51.840;8.276;2023-09-12T02:25:04;20.10;99.90
9949;DHT22;5013;51.840;8.276;2023-09-12T02:27:30;20.10;1.00
9949;DHT22;5013;51.840;8.276;2023-09-12T02:29:55;20.10;30.50
9949;DHT22;5013;51.840;8.276;2023-09-12T02:32:21;20.20;99.90
9949;DHT22;5013;51.840;8.276;2023-09-12T02:34:46;20.30;1.00
9949;DHT22;5013;51.840;8.276;2023-09-12T02:37:12;20.30;77.30
9949;DHT22;5013;51.840;8.276;2023-09-12T02:39:38;20.40;1.00
9949;DHT22;5013;51.840;8.276;2023-09-12T02:42:03;20.40;99.90
9949;DHT22;5013;51.840;8.276;2023-09-12T02:44:29;20.40;99.90
9949;DHT22;5013;51.840;8.276;2023-09-12T02:46:55;20.40;1.00
9949;DHT22;5013;51.840;8.276;2023-09-12T02:49:20;20.50;99.90
9949;DHT22;5013;51.840;8.276;2023-09-12T02:51:46;20.40;47.70
9949;DHT22;5013;51.840;8.276;2023-09-12T02:54:11;20.50;1.00
9949;DHT22;5013;51.840;8.276;2023-09-12T02:56:37;20.50;99.90
9949;DHT22;5013;51.840;8.276;2023-09-12T02:59:03;20.50;99.90
9949;DHT22;5013;51.840;8.276;2023-09-12T03:01:29;20.50;1.00
9949;DHT22;5013;51.840;8.276;2023-09-12T03:03:54;20.50;1.00
9949;DHT22;5013;51.840;8.276;2023-09-12T03:06:20;20.60;1.00
9949;DHT22;5013;51.840;8.276;2023-09-12T03:08:47;20.60;1.00
9949;DHT22;5013;51.840;8.276;2023-09-12T03:11:12;20.70;1.00
9949;DHT22;5013;51.840;8.276;2023-09-12T03:13:39;20.60;1.00
9949;DHT22;5013;51.840;8.276;2023-09-12T03:16:13;20.60;1.00
9949;DHT22;5013;51.840;8.276;2023-09-12T03:18:38;20.60;26.50
9949;DHT22;5013;51.840;8.276;2023-09-12T03:21:04;20.50;99.90
9949;DHT22;5013;51.840;8.276;2023-09-12T03:23:30;20.50;1.00
9949;DHT22;5013;51.840;8.276;2023-09-12T03:26:02;20.60;99.90
9949;DHT22;5013;51.840;8.276;2023-09-12T03:28:29;20.70;99.90
9949;DHT22;5013;51.840;8.276;2023-09-12T03:31:06;20.70;1.00
9949;DHT22;5013;51.840;8.276;2023-09-12T03:33:32;20.60;1.00
9949;DHT22;5013;51.840;8.276;2023-09-12T03:35:58;20.50;1.00
9949;DHT22;5013;51.840;8.276;2023-09-12T03:38:24;20.40;73.90
9949;DHT22;5013;51.840;8.276;2023-09-12T03:40:49;20.30;99.90
9949;DHT22;5013;51.840;8.276;2023-09-12T03:43:15;20.30;99.90
9949;DHT22;5013;51.840;8.276;2023-09-12T03:45:40;20.30;99.90
9949;DHT22;5013;51.840;8.276;2023-09-12T03:48:06;20.20;99.90
9949;DHT22;5013;51.840;8.276;2023-09-12T03:50:32;20.40;99.90
9949;DHT22;5013;51.840;8.276;2023-09-12T03:52:57;20.40;1.00
9949;DHT22;5013;51.840;8.276;2023-09-12T03:55:23;20.40;1.00
9949;DHT22;5013;51.840;8.276;2023-09-12T03:57:48;20.40;1.00
9949;DHT22;5013;51.840;8.276;2023-09-12T04:00:14;20.40;99.90
9949;DHT22;5013;51.840;8.276;2023-09-12T04:02:40;20.40;1.00
9949;DHT22;5013;51.840;8.276;2023-09-12T04:05:06;20.40;99.90
9949;DHT22;5013;51.840;8.276;2023-09-12T04:07:32;20.40;99.90
9949;DHT22;5013;51.840;8.276;2023-09-12T04:09:57;20.40;99.90
9949;DHT22;5013;51.840;8.276;2023-09-12T04:12:23;20.40;1.00
9949;DHT22;5013;51.840;8.276;2023-09-12T04:14:52;20.40;1.00
9949;DHT22;5013;51.840;8.276;2023-09-12T04:17:18;20.40;1.00
9949;DHT22;5013;51.840;8.276;2023-09-12T04:19:44;20.40;1.00
9949;DHT22;5013;51.840;8.276;2023-09-12T04:22:09;20.40;1.00
9949;DHT22;5013;51.840;8.276;2023-09-12T04:24:35;20.50;1.00
9949;DHT22;5013;51.840;8.276;2023-09-12T04:27:00;20.50;99.90
9949;DHT22;5013;51.840;8.276;2023-09-12T04:29:26;20.60;1.00
9949;DHT22;5013;51.840;8.276;2023-09-12T04:31:52;20.50;1.00
9949;DHT22;5013;51.840;8.276;2023-09-12T04:34:24;20.40;99.90
9949;DHT22;5013;51.840;8.276;2023-09-12T04:36:49;20.50;99.90
9949;DHT22;5013;51.840;8.276;2023-09-12T04:39:15;20.50;1.00
9949;DHT22;5013;51.840;8.276;2023-09-12T04:41:41;20.40;99.90
9949;DHT22;5013;51.840;8.276;2023-09-12T04:44:06;20.40;1.00
9949;DHT22;5013;51.840;8.276;2023-09-12T04:46:32;20.40;1.00
9949;DHT22;5013;51.840;8.276;2023-09-12T04:48:57;20.40;99.90
9949;DHT22;5013;51.840;8.276;2023-09-12T04:51:23;20.30;99.90
9949;DHT22;5013;51.840;8.276;2023-09-12T04:53:48;20.20;99.90
9949;DHT22;5013;51.840;8.276;2023-09-12T04:56:17;20.20;1.00
9949;DHT22;5013;51.840;8.276;2023-09-12T04:58:42;20.20;99.90
9949;DHT22;5013;51.840;8.276;2023-09-12T05:01:08;20.20;99.90
9949;DHT22;5013;51.840;8.276;2023-09-12T05:03:35;20.00;3.40
9949;DHT22;5013;51.840;8.276;2023-09-12T05:06:00;20.30;99.90
9949;DHT22;5013;51.840;8.276;2023-09-12T05:08:26;20.20;19.20
9949;DHT22;5013;51.840;8.276;2023-09-12T05:10:51;20.10;99.90
9949;DHT22;5013;51.840;8.276;2023-09-12T05:13:17;20.10;1.00
9949;DHT22;5013;51.840;8.276;2023-09-12T05:15:44;20.00;99.90
9949;DHT22;5013;51.840;8.276;2023-09-12T05:18:09;19.90;99.90
9949;DHT22;5013;51.840;8.276;2023-09-12T05:20:36;19.80;99.90
9949;DHT22;5013;51.840;8.276;2023-09-12T05:23:02;19.70;99.90
9949;DHT22;5013;51.840;8.276;2023-09-12T05:25:27;19.60;99.90
9949;DHT22;5013;51.840;8.276;2023-09-12T05:27:54;19.70;1.00
9949;DHT22;5013;51.840;8.276;2023-09-12T05:30:19;19.60;1.00
9949;DHT22;5013;51.840;8.276;2023-09-12T05:32:45;19.40;1.00
9949;DHT22;5013;51.840;8.276;2023-09-12T05:35:11;19.50;1.00
9949;DHT22;5013;51.840;8.276;2023-09-12T05:37:36;19.40;1.00
9949;DHT22;5013;51.840;8.276;2023-09-12T05:40:02;19.40;1.00
9949;DHT22;5013;51.840;8.276;2023-09-12T05:42:28;19.40;1.00
9949;DHT22;5013;51.840;8.276;2023-09-12T05:44:54;19.40;99.90
9949;DHT22;5013;51.840;8.276;2023-09-12T05:47:20;19.30;1.00
9949;DHT22;5013;51.840;8.276;2023-09-12T05:49:46;19.40;1.00
9949;DHT22;5013;51.840;8.276;2023-09-12T05:52:11;19.50;1.00
9949;DHT22;5013;51.840;8.276;2023-09-12T05:54:38;19.50;1.00
9949;DHT22;5013;51.840;8.276;2023-09-12T05:57:04;19.50;1.00
9949;DHT22;5013;51.840;8.276;2023-09-12T05:59:30;19.40;1.00
9949;DHT22;5013;51.840;8.276;2023-09-12T06:01:55;19.40;1.00
9949;DHT22;5013;51.840;8.276;2023-09-12T06:04:24;19.40;1.00
9949;DHT22;5013;51.840;8.276;2023-09-12T06:06:49;19.40;99.90
9949;DHT22;5013;51.840;8.276;2023-09-12T06:09:15;19.40;99.90
9949;DHT22;5013;51.840;8.276;2023-09-12T06:11:40;19.10;99.90
9949;DHT22;5013;51.840;8.276;2023-09-12T06:14:06;19.10;99.90
9949;DHT22;5013;51.840;8.276;2023-09-12T06:16:31;19.20;99.90
9949;DHT22;5013;51.840;8.276;2023-09-12T06:18:57;19.30;99.90
9949;DHT22;5013;51.840;8.276;2023-09-12T06:21:23;19.30;99.90
9949;DHT22;5013;51.840;8.276;2023-09-12T06:24:11;19.30;99.90
9949;DHT22;5013;51.840;8.276;2023-09-12T06:26:38;19.30;99.90
9949;DHT22;5013;51.840;8.276;2023-09-12T06:29:03;19.30;99.90
9949;DHT22;5013;51.840;8.276;2023-09-12T06:31:29;19.10;99.90
9949;DHT22;5013;51.840;8.276;2023-09-12T06:33:55;19.10;99.90
9949;DHT22;5013;51.840;8.276;2023-09-12T06:36:20;19.20;99.90
9949;DHT22;5013;51.840;8.276;2023-09-12T06:38:46;19.30;99.90
9949;DHT22;5013;51.840;8.276;2023-09-12T06:41:13;19.20;99.90
9949;DHT22;5013;51.840;8.276;2023-09-12T06:43:38;19.20;99.90
9949;DHT22;5013;51.840;8.276;2023-09-12T06:46:04;19.30;99.90
9949;DHT22;5013;51.840;8.276;2023-09-12T06:48:29;19.40;99.90
9949;DHT22;5013;51.840;8.276;2023-09-12T06:50:55;19.50;99.90
9949;DHT22;5013;51.840;8.276;2023-09-12T06:53:21;19.40;99.90
9949;DHT22;5013;51.840;8.276;2023-09-12T06:55:46;19.30;99.90
9949;DHT22;5013;51.840;8.276;2023-09-12T06:58:12;19.30;99.90
9949;DHT22;5013;51.840;8.276;2023-09-12T07:00:38;19.20;99.90
9949;DHT22;5013;51.840;8.276;2023-09-12T07:03:03;19.20;99.90
9949;DHT22;5013;51.840;8.276;2023-09-12T07:05:29;19.10;99.90
9949;DHT22;5013;51.840;8.276;2023-09-12T07:07:55;19.00;99.90
9949;DHT22;5013;51.840;8.276;2023-09-12T07:10:20;19.10;99.90
9949;DHT22;5013;51.840;8.276;2023-09-12T07:12:46;19.20;99.90
9949;DHT22;5013;51.840;8.276;2023-09-12T07:15:11;19.10;99.90
9949;DHT22;5013;51.840;8.276;2023-09-12T07:17:38;19.10;99.90
9949;DHT22;5013;51.840;8.276;2023-09-12T07:20:04;19.20;99.90
9949;DHT22;5013;51.840;8.276;2023-09-12T07:22:30;19.30;99.90
9949;DHT22;5013;51.840;8.276;2023-09-12T07:24:59;19.40;99.90
9949;DHT22;5013;51.840;8.276;2023-09-12T07:27:24;19.50;99.90
9949;DHT22;5013;51.840;8.276;2023-09-12T07:29:50;19.40;99.90
9949;DHT22;5013;51.840;8.276;2023-09-12T07:32:15;19.50;99.90
9949;DHT22;5013;51.840;8.276;2023-09-12T07:34:41;19.50;99.90
9949;DHT22;5013;51.840;8.276;2023-09-12T07:37:10;19.50;99.90
9949;DHT22;5013;51.840;8.276;2023-09-12T07:39:36;19.50;99.90
9949;DHT22;5013;51.840;8.276;2023-09-12T07:42:01;19.50;99.90
9949;DHT22;5013;51.840;8.276;2023-09-12T07:44:28;19.50;99.90
9949;DHT22;5013;51.840;8.276;2023-09-12T07:46:54;19.40;99.90
9949;DHT22;5013;51.840;8.276;2023-09-12T07:49:20;19.30;99.90
9949;DHT22;5013;51.840;8.276;2023-09-12T07:51:45;19.40;99.90
9949;DHT22;5013;51.840;8.276;2023-09-12T07:54:11;19.40;99.90
9949;DHT22;5013;51.840;8.276;2023-09-12T07:56:36;19.30;99.90
9949;DHT22;5013;51.840;8.276;2023-09-12T07:59:02;19.30;99.90
9949;DHT22;5013;51.840;8.276;2023-09-12T08:01:28;19.20;99.90
9949;DHT22;5013;51.840;8.276;2023-09-12T08:03:54;19.20;99.90
9949;DHT22;5013;51.840;8.276;2023-09-12T08:06:20;19.00;99.90
9949;DHT22;5013;51.840;8.276;2023-09-12T08:08:45;18.80;99.90
9949;DHT22;5013;51.840;8.276;2023-09-12T08:11:11;18.60;99.90
9949;DHT22;5013;51.840;8.276;2023-09-12T08:13:36;18.60;99.90
9949;DHT22;5013;51.840;8.276;2023-09-12T08:16:02;18.40;99.90
9949;DHT22;5013;51.840;8.276;2023-09-12T08:18:29;18.40;99.90
9949;DHT22;5013;51.840;8.276;2023-09-12T08:20:56;18.50;99.90
9949;DHT22;5013;51.840;8.276;2023-09-12T08:23:22;18.50;99.90
9949;DHT22;5013;51.840;8.276;2023-09-12T08:25:47;18.60;99.90
9949;DHT22;5013;51.840;8.276;2023-09-12T08:28:14;18.50;99.90
9949;DHT22;5013;51.840;8.276;2023-09-12T08:30:39;18.50;99.90
9949;DHT22;5013;51.840;8.276;2023-09-12T08:33:05;18.60;99.90
9949;DHT22;5013;51.840;8.276;2023-09-12T08:35:32;18.60;99.90
9949;DHT22;5013;51.840;8.276;2023-09-12T08:37:58;18.70;99.90
9949;DHT22;5013;51.840;8.276;2023-09-12T08:40:23;18.60;99.90
9949;DHT22;5013;51.840;8.276;2023-09-12T08:42:50;18.60;99.90
9949;DHT22;5013;51.840;8.276;2023-09-12T08:45:17;18.70;99.90
9949;DHT22;5013;51.840;8.276;2023-09-12T08:47:45;18.70;99.90
9949;DHT22;5013;51.840;8.276;2023-09-12T08:50:12;18.70;99.90
9949;DHT22;5013;51.840;8.276;2023-09-12T08:52:39;18.80;99.90
9949;DHT22;5013;51.840;8.276;2023-09-12T08:55:05;18.80;99.90
9949;DHT22;5013;51.840;8.276;2023-09-12T08:57:33;18.80;99.90
9949;DHT22;5013;51.840;8.276;2023-09-12T09:00:01;18.90;99.90
9949;DHT22;5013;51.840;8.276;2023-09-12T09:02:43;18.90;99.90
9949;DHT22;5013;51.840;8.276;2023-09-12T09:05:10;18.90;99.90
9949;DHT22;5013;51.840;8.276;2023-09-12T09:07:41;18.90;99.90
9949;DHT22;5013;51.840;8.276;2023-09-12T09:10:09;18.90;99.90
9949;DHT22;5013;51.840;8.276;2023-09-12T09:12:37;18.90;99.90
9949;DHT22;5013;51.840;8.276;2023-09-12T09:15:21;18.80;99.90
9949;DHT22;5013;51.840;8.276;2023-09-12T09:17:47;18.80;99.90
9949;DHT22;5013;51.840;8.276;2023-09-12T09:20:31;18.90;99.90
9949;DHT22;5013;51.840;8.276;2023-09-12T09:23:04;19.00;99.90
9949;DHT22;5013;51.840;8.276;2023-09-12T09:25:35;19.00;99.90
9949;DHT22;5013;51.840;8.276;2023-09-12T09:28:05;18.90;99.90
9949;DHT22;5013;51.840;8.276;2023-09-12T09:30:47;18.80;99.90
9949;DHT22;5013;51.840;8.276;2023-09-12T09:33:14;18.90;99.90
9949;DHT22;5013;51.840;8.276;2023-09-12T09:35:43;18.80;99.90
9949;DHT22;5013;51.840;8.276;2023-09-12T09:38:10;18.90;99.90
9949;DHT22;5013;51.840;8.276;2023-09-12T09:40:42;18.90;99.90
9949;DHT22;5013;51.840;8.276;2023-09-12T09:43:07;19.00;99.90
9949;DHT22;5013;51.840;8.276;2023-09-12T09:45:43;19.00;99.90
9949;DHT22;5013;51.840;8.276;2023-09-12T09:48:09;19.10;99.90
9949;DHT22;5013;51.840;8.276;2023-09-12T09:50:35;19.00;99.90
9949;DHT22;5013;51.840;8.276;2023-09-12T09:53:02;19.00;99.90
9949;DHT22;5013;51.840;8.276;2023-09-12T09:55:30;19.00;99.90
9949;DHT22;5013;51.840;8.276;2023-09-12T09:57:55;19.00;99.90
9949;DHT22;5013;51.840;8.276;2023-09-12T10:00:22;18.90;99.90
9949;DHT22;5013;51.840;8.276;2023-09-12T10:02:50;18.90;99.90
9949;DHT22;5013;51.840;8.276;2023-09-12T10:05:17;18.80;99.90
9949;DHT22;5013;51.840;8.276;2023-09-12T10:07:50;18.80;99.90
9949;DHT22;5013;51.840;8.276;2023-09-12T10:10:17;18.70;99.90
9949;DHT22;5013;51.840;8.276;2023-09-12T10:12:55;18.80;99.90
9949;DHT22;5013;51.840;8.276;2023-09-12T10:15:22;18.80;99.90
9949;DHT22;5013;51.840;8.276;2023-09-12T10:17:59;18.90;99.90
9949;DHT22;5013;51.840;8.276;2023-09-12T10:20:42;18.90;99.90
9949;DHT22;5013;51.840;8.276;2023-09-12T10:23:25;18.90;99.90
9949;DHT22;5013;51.840;8.276;2023-09-12T10:25:54;18.90;99.90
9949;DHT22;5013;51.840;8.276;2023-09-12T10:28:21;18.90;99.90
9949;DHT22;5013;51.840;8.276;2023-09-12T10:30:47;18.80;99.90
9949;DHT22;5013;51.840;8.276;2023-09-12T10:33:14;18.90;99.90
9949;DHT22;5013;51.840;8.276;2023-09-12T10:35:40;19.00;99.90
9949;DHT22;5013;51.840;8.276;2023-09-12T10:38:07;19.20;99.90
9949;DHT22;5013;51.840;8.276;2023-09-12T10:40:36;19.40;99.90
9949;DHT22;5013;51.840;8.276;2023-09-12T10:43:03;19.60;99.90
9949;DHT22;5013;51.840;8.276;2023-09-12T10:45:31;19.70;99.90
9949;DHT22;5013;51.840;8.276;2023-09-12T10:47:58;19.80;99.90
9949;DHT22;5013;51.840;8.276;2023-09-12T10:50:24;19.90;99.90
9949;DHT22;5013;51.840;8.276;2023-09-12T10:52:50;20.00;99.90
9949;DHT22;5013;51.840;8.276;2023-09-12T10:55:16;20.10;99.90
9949;DHT22;5013;51.840;8.276;2023-09-12T10:58:03;20.20;99.90
9949;DHT22;5013;51.840;8.276;2023-09-12T11:00:29;20.30;99.90
9949;DHT22;5013;51.840;8.276;2023-09-12T11:02:58;20.60;99.90
9949;DHT22;5013;51.840;8.276;2023-09-12T11:07:58;20.90;1.00
9949;DHT22;5013;51.840;8.276;2023-09-12T11:10:25;20.90;1.00
9949;DHT22;5013;51.840;8.276;2023-09-12T11:12:55;21.10;1.00
9949;DHT22;5013;51.840;8.276;2023-09-12T11:15:23;21.30;1.00
9949;DHT22;5013;51.840;8.276;2023-09-12T11:20:24;21.10;1.00
9949;DHT22;5013;51.840;8.276;2023-09-12T11:22:50;21.20;1.00
9949;DHT22;5013;51.840;8.276;2023-09-12T11:25:21;21.00;99.90
9949;DHT22;5013;51.840;8.276;2023-09-12T11:30:25;21.20;1.00
9949;DHT22;5013;51.840;8.276;2023-09-12T11:32:51;21.70;1.00
9949;DHT22;5013;51.840;8.276;2023-09-12T11:35:25;22.10;1.00
9949;DHT22;5013;51.840;8.276;2023-09-12T11:38:00;22.30;99.90
9949;DHT22;5013;51.840;8.276;2023-09-12T11:42:57;22.80;1.00
9949;DHT22;5013;51.840;8.276;2023-09-12T11:45:23;22.90;99.90
9949;DHT22;5013;51.840;8.276;2023-09-12T11:47:49;23.00;1.00
9949;DHT22;5013;51.840;8.276;2023-09-12T11:50:31;22.60;1.00
9949;DHT22;5013;51.840;8.276;2023-09-12T11:53:04;22.60;1.00
9949;DHT22;5013;51.840;8.276;2023-09-12T11:55:32;22.80;99.90
9949;DHT22;5013;51.840;8.276;2023-09-12T11:57:57;22.90;99.90
9949;DHT22;5013;51.840;8.276;2023-09-12T12:00:23;23.10;99.90
9949;DHT22;5013;51.840;8.276;2023-09-12T12:02:52;23.10;99.90
9949;DHT22;5013;51.840;8.276;2023-09-12T12:05:17;23.00;1.00
9949;DHT22;5013;51.840;8.276;2023-09-12T12:07:43;23.20;18.10
9949;DHT22;5013;51.840;8.276;2023-09-12T12:10:12;23.50;99.90
9949;DHT22;5013;51.840;8.276;2023-09-12T12:12:37;23.70;1.00
9949;DHT22;5013;51.840;8.276;2023-09-12T12:15:03;24.00;1.00
9949;DHT22;5013;51.840;8.276;2023-09-12T12:17:29;24.00;99.90
9949;DHT22;5013;51.840;8.276;2023-09-12T12:19:54;24.00;74.00
9949;DHT22;5013;51.840;8.276;2023-09-12T12:22:21;23.50;1.00
9949;DHT22;5013;51.840;8.276;2023-09-12T12:24:48;23.20;1.00
9949;DHT22;5013;51.840;8.276;2023-09-12T12:27:15;23.40;1.00
9949;DHT22;5013;51.840;8.276;2023-09-12T12:29:41;23.40;54.60
9949;DHT22;5013;51.840;8.276;2023-09-12T12:32:10;23.40;1.00
9949;DHT22;5013;51.840;8.276;2023-09-12T12:34:36;23.40;42.60
9949;DHT22;5013;51.840;8.276;2023-09-12T12:37:03;23.80;1.00
9949;DHT22;5013;51.840;8.276;2023-09-12T12:39:28;24.00;99.90
9949;DHT22;5013;51.840;8.276;2023-09-12T12:41:54;24.00;99.90
9949;DHT22;5013;51.840;8.276;2023-09-12T12:44:21;24.10;99.90
9949;DHT22;5013;51.840;8.276;2023-09-12T12:46:53;23.90;99.90
9949;DHT22;5013;51.840;8.276;2023-09-12T12:49:20;24.00;99.90
9949;DHT22;5013;51.840;8.276;2023-09-12T12:51:46;24.00;99.90
9949;DHT22;5013;51.840;8.276;2023-09-12T12:54:13;23.90;99.90
9949;DHT22;5013;51.840;8.276;2023-09-12T12:56:38;23.80;1.00
9949;DHT22;5013;51.840;8.276;2023-09-12T12:59:06;23.80;1.00
9949;DHT22;5013;51.840;8.276;2023-09-12T13:01:37;24.00;99.90
9949;DHT22;5013;51.840;8.276;2023-09-12T13:04:09;24.20;1.00
9949;DHT22;5013;51.840;8.276;2023-09-12T13:06:35;24.30;99.90
9949;DHT22;5013;51.840;8.276;2023-09-12T13:09:05;24.20;80.50
9949;DHT22;5013;51.840;8.276;2023-09-12T13:11:32;24.50;99.90
9949;DHT22;5013;51.840;8.276;2023-09-12T13:14:01;24.70;1.00
9949;DHT22;5013;51.840;8.276;2023-09-12T13:16:28;24.70;1.00
9949;DHT22;5013;51.840;8.276;2023-09-12T13:18:54;24.70;99.90
9949;DHT22;5013;51.840;8.276;2023-09-12T13:21:20;24.80;1.00
9949;DHT22;5013;51.840;8.276;2023-09-12T13:23:45;24.60;1.00
9949;DHT22;5013;51.840;8.276;2023-09-12T13:26:11;24.30;1.00
9949;DHT22;5013;51.840;8.276;2023-09-12T13:28:37;24.10;1.00
9949;DHT22;5013;51.840;8.276;2023-09-12T13:31:02;24.40;79.40
9949;DHT22;5013;51.840;8.276;2023-09-12T13:33:28;24.40;99.90
9949;DHT22;5013;51.840;8.276;2023-09-12T13:35:54;24.50;1.00
9949;DHT22;5013;51.840;8.276;2023-09-12T13:38:20;24.50;99.90
9949;DHT22;5013;51.840;8.276;2023-09-12T13:40:46;24.40;1.00
9949;DHT22;5013;51.840;8.276;2023-09-12T13:43:12;24.70;1.00
9949;DHT22;5013;51.840;8.276;2023-09-12T13:45:38;24.90;34.60
9949;DHT22;5013;51.840;8.276;2023-09-12T13:48:05;24.90;1.00
9949;DHT22;5013;51.840;8.276;2023-09-12T13:50:31;24.80;1.00
9949;DHT22;5013;51.840;8.276;2023-09-12T13:52:58;24.90;1.00
9949;DHT22;5013;51.840;8.276;2023-09-12T13:55:36;25.00;1.00
9949;DHT22;5013;51.840;8.276;2023-09-12T13:58:03;25.20;99.90
9949;DHT22;5013;51.840;8.276;2023-09-12T14:00:30;25.10;1.00
9949;DHT22;5013;51.840;8.276;2023-09-12T14:02:55;25.30;99.90
9949;DHT22;5013;51.840;8.276;2023-09-12T14:05:21;25.30;1.00
9949;DHT22;5013;51.840;8.276;2023-09-12T14:07:47;24.90;99.90
9949;DHT22;5013;51.840;8.276;2023-09-12T14:10:13;25.10;1.00
9949;DHT22;5013;51.840;8.276;2023-09-12T14:12:38;25.20;99.90
9949;DHT22;5013;51.840;8.276;2023-09-12T14:15:04;25.20;1.00
9949;DHT22;5013;51.840;8.276;2023-09-12T14:17:33;25.10;99.90
9949;DHT22;5013;51.840;8.276;2023-09-12T14:19:58;25.10;1.00
9949;DHT22;5013;51.840;8.276;2023-09-12T14:22:24;25.00;1.00
9949;DHT22;5013;51.840;8.276;2023-09-12T14:24:49;24.90;99.90
9949;DHT22;5013;51.840;8.276;2023-09-12T14:27:15;24.90;99.90
9949;DHT22;5013;51.840;8.276;2023-09-12T14:29:41;24.90;99.90
9949;DHT22;5013;51.840;8.276;2023-09-12T14:32:10;24.90;1.00
9949;DHT22;5013;51.840;8.276;2023-09-12T14:34:36;25.00;34.10
9949;DHT22;5013;51.840;8.276;2023-09-12T14:37:02;25.10;1.00
9949;DHT22;5013;51.840;8.276;2023-09-12T14:39:27;25.10;1.00
9949;DHT22;5013;51.840;8.276;2023-09-12T14:41:53;25.10;1.00
9949;DHT22;5013;51.840;8.276;2023-09-12T14:46:45;24.80;1.00
9949;DHT22;5013;51.840;8.276;2023-09-12T14:49:11;24.80;99.90
9949;DHT22;5013;51.840;8.276;2023-09-12T14:51:36;24.90;99.90
9949;DHT22;5013;51.840;8.276;2023-09-12T14:54:06;24.70;1.00
9949;DHT22;5013;51.840;8.276;2023-09-12T14:56:33;24.90;99.90
9949;DHT22;5013;51.840;8.276;2023-09-12T14:58:59;25.10;1.00
9949;DHT22;5013;51.840;8.276;2023-09-12T15:01:25;25.20;1.00
9949;DHT22;5013;51.840;8.276;2023-09-12T15:03:52;25.20;1.00
9949;DHT22;5013;51.840;8.276;2023-09-12T15:06:17;25.30;1.00
9949;DHT22;5013;51.840;8.276;2023-09-12T15:08:43;25.40;99.90
9949;DHT22;5013;51.840;8.276;2023-09-12T15:11:09;25.40;1.00
9949;DHT22;5013;51.840;8.276;2023-09-12T15:13:35;25.50;99.90
9949;DHT22;5013;51.840;8.276;2023-09-12T15:16:00;25.50;99.90
9949;DHT22;5013;51.840;8.276;2023-09-12T15:18:26;25.50;99.90
9949;DHT22;5013;51.840;8.276;2023-09-12T15:20:52;25.50;99.90
9949;DHT22;5013;51.840;8.276;2023-09-12T15:23:18;25.50;99.90
9949;DHT22;5013;51.840;8.276;2023-09-12T15:25:44;25.50;99.90
9949;DHT22;5013;51.840;8.276;2023-09-12T15:28:10;25.50;99.90
9949;DHT22;5013;51.840;8.276;2023-09-12T15:30:35;25.40;48.50
9949;DHT22;5013;51.840;8.276;2023-09-12T15:33:01;25.20;99.90
9949;DHT22;5013;51.840;8.276;2023-09-12T15:35:27;25.10;1.00
9949;DHT22;5013;51.840;8.276;2023-09-12T15:37:52;25.00;1.00
9949;DHT22;5013;51.840;8.276;2023-09-12T15:40:18;25.00;6.50
9949;DHT22;5013;51.840;8.276;2023-09-12T15:42:43;24.80;1.00
9949;DHT22;5013;51.840;8.276;2023-09-12T15:45:09;24.70;1.00
9949;DHT22;5013;51.840;8.276;2023-09-12T15:47:35;24.40;1.00
9949;DHT22;5013;51.840;8.276;2023-09-12T15:50:01;24.40;1.00
9949;DHT22;5013;51.840;8.276;2023-09-12T15:52:28;24.50;99.90
9949;DHT22;5013;51.840;8.276;2023-09-12T15:54:54;24.50;99.90
9949;DHT22;5013;51.840;8.276;2023-09-12T15:57:20;24.50;99.90
9949;DHT22;5013;51.840;8.276;2023-09-12T15:59:45;24.30;1.00
9949;DHT22;5013;51.840;8.276;2023-09-12T16:02:11;24.40;1.00
9949;DHT22;5013;51.840;8.276;2023-09-12T16:04:37;24.40;99.90
9949;DHT22;5013;51.840;8.276;2023-09-12T16:07:02;24.30;99.90
9949;DHT22;5013;51.840;8.276;2023-09-12T16:09:28;24.40;99.90
9949;DHT22;5013;51.840;8.276;2023-09-12T16:11:54;24.20;1.00
9949;DHT22;5013;51.840;8.276;2023-09-12T16:14:19;24.20;1.00
9949;DHT22;5013;51.840;8.276;2023-09-12T16:16:45;24.00;1.00
9949;DHT22;5013;51.840;8.276;2023-09-12T16:19:11;23.80;99.90
9949;DHT22;5013;51.840;8.276;2023-09-12T16:21:37;23.70;1.00